sensor_id;sensor_type;location;lat;lon;timestamp;P1;durP1;ratioP1;P2;durP2;ratioP2
31464;SDS011;18089;47.428;15.006;2022-09-03T00:02:08;9.40;;;8.70;;
31464;SDS011;18089;47.428;15.006;2022-09-03T00:04:46;10.27;;;9.38;;
31464;SDS011;18089;47.428;15.006;2022-09-03T00:07:27;10.07;;;9.27;;
31464;SDS011;18089;47.428;15.006;2022-09-03T00:10:04;10.45;;;9.55;;
31464;SDS011;18089;47.428;15.006;2022-09-03T00:12:39;10.20;;;9.30;;
31464;SDS011;18089;47.428;15.006;2022-09-03T00:15:14;10.30;;;9.27;;
31464;SDS011;18089;47.428;15.006;2022-09-03T00:17:48;11.07;;;10.07;;
31464;SDS011;18089;47.428;15.006;2022-09-03T00:20:24;10.27;;;9.40;;
31464;SDS011;18089;47.428;15.006;2022-09-03T00:23:00;10.23;;;9.40;;
31464;SDS011;18089;47.428;15.006;2022-09-03T00:25:37;10.88;;;9.93;;
31464;SDS011;18089;47.428;15.006;2022-09-03T00:28:10;10.30;;;9.35;;
31464;SDS011;18089;47.428;15.006;2022-09-03T00:30:45;10.50;;;9.48;;
31464;SDS011;18089;47.428;15.006;2022-09-03T00:33:27;10.57;;;9.63;;
31464;SDS011;18089;47.428;15.006;2022-09-03T00:36:04;9.75;;;9.05;;
31464;SDS011;18089;47.428;15.006;2022-09-03T00:38:41;10.52;;;9.63;;
31464;SDS011;18089;47.428;15.006;2022-09-03T00:41:17;10.27;;;9.40;;
31464;SDS011;18089;47.428;15.006;2022-09-03T00:43:59;10.68;;;9.10;;
31464;SDS011;18089;47.428;15.006;2022-09-03T00:46:40;9.98;;;9.25;;
31464;SDS011;18089;47.428;15.006;2022-09-03T00:49:20;10.45;;;9.52;;
31464;SDS011;18089;47.428;15.006;2022-09-03T00:52:00;10.20;;;9.20;;
31464;SDS011;18089;47.428;15.006;2022-09-03T00:54:40;10.05;;;9.07;;
31464;SDS011;18089;47.428;15.006;2022-09-03T00:57:20;10.00;;;9.05;;
31464;SDS011;18089;47.428;15.006;2022-09-03T01:00:00;9.95;;;9.25;;
31464;SDS011;18089;47.428;15.006;2022-09-03T01:02:40;9.85;;;9.02;;
31464;SDS011;18089;47.428;15.006;2022-09-03T01:05:22;10.02;;;9.10;;
31464;SDS011;18089;47.428;15.006;2022-09-03T01:08:06;9.77;;;8.98;;
31464;SDS011;18089;47.428;15.006;2022-09-03T01:10:48;9.80;;;9.00;;
31464;SDS011;18089;47.428;15.006;2022-09-03T01:13:26;10.07;;;9.30;;
31464;SDS011;18089;47.428;15.006;2022-09-03T01:16:04;10.82;;;9.90;;
31464;SDS011;18089;47.428;15.006;2022-09-03T01:18:42;11.57;;;10.40;;
31464;SDS011;18089;47.428;15.006;2022-09-03T01:21:27;11.20;;;10.10;;
31464;SDS011;18089;47.428;15.006;2022-09-03T01:24:28;10.73;;;9.70;;
31464;SDS011;18089;47.428;15.006;2022-09-03T01:27:12;10.52;;;9.60;;
31464;SDS011;18089;47.428;15.006;2022-09-03T01:29:51;10.88;;;9.80;;
31464;SDS011;18089;47.428;15.006;2022-09-03T01:32:30;10.75;;;9.65;;
31464;SDS011;18089;47.428;15.006;2022-09-03T01:35:08;10.52;;;9.52;;
31464;SDS011;18089;47.428;15.006;2022-09-03T01:37:49;10.68;;;9.80;;
31464;SDS011;18089;47.428;15.006;2022-09-03T01:40:31;10.32;;;9.52;;
31464;SDS011;18089;47.428;15.006;2022-09-03T01:43:13;11.23;;;10.35;;
31464;SDS011;18089;47.428;15.006;2022-09-03T01:45:54;11.68;;;10.57;;
31464;SDS011;18089;47.428;15.006;2022-09-03T01:48:31;11.98;;;10.95;;
31464;SDS011;18089;47.428;15.006;2022-09-03T01:51:17;10.65;;;9.90;;
31464;SDS011;18089;47.428;15.006;2022-09-03T01:53:55;11.00;;;10.15;;
31464;SDS011;18089;47.428;15.006;2022-09-03T01:56:42;10.98;;;10.18;;
31464;SDS011;18089;47.428;15.006;2022-09-03T01:59:26;11.13;;;10.23;;
31464;SDS011;18089;47.428;15.006;2022-09-03T02:02:02;11.18;;;10.20;;
31464;SDS011;18089;47.428;15.006;2022-09-03T02:04:36;11.27;;;10.38;;
31464;SDS011;18089;47.428;15.006;2022-09-03T02:07:08;11.20;;;10.40;;
31464;SDS011;18089;47.428;15.006;2022-09-03T02:09:40;10.70;;;9.70;;
31464;SDS011;18089;47.428;15.006;2022-09-03T02:12:13;11.30;;;10.40;;
31464;SDS011;18089;47.428;15.006;2022-09-03T02:14:47;11.48;;;10.57;;
31464;SDS011;18089;47.428;15.006;2022-09-03T02:17:21;10.98;;;10.07;;
31464;SDS011;18089;47.428;15.006;2022-09-03T02:19:53;10.85;;;10.05;;
31464;SDS011;18089;47.428;15.006;2022-09-03T02:22:25;10.70;;;9.90;;
31464;SDS011;18089;47.428;15.006;2022-09-03T02:24:57;10.85;;;10.02;;
31464;SDS011;18089;47.428;15.006;2022-09-03T02:27:29;11.82;;;10.90;;
31464;SDS011;18089;47.428;15.006;2022-09-03T02:30:02;11.25;;;10.35;;
31464;SDS011;18089;47.428;15.006;2022-09-03T02:32:36;10.80;;;9.98;;
31464;SDS011;18089;47.428;15.006;2022-09-03T02:35:08;11.07;;;10.27;;
31464;SDS011;18089;47.428;15.006;2022-09-03T02:37:41;10.82;;;10.02;;
31464;SDS011;18089;47.428;15.006;2022-09-03T02:40:13;11.15;;;10.32;;
31464;SDS011;18089;47.428;15.006;2022-09-03T02:42:46;11.30;;;10.20;;
31464;SDS011;18089;47.428;15.006;2022-09-03T02:45:20;11.23;;;10.18;;
31464;SDS011;18089;47.428;15.006;2022-09-03T02:47:57;11.48;;;10.55;;
31464;SDS011;18089;47.428;15.006;2022-09-03T02:50:30;12.15;;;11.05;;
31464;SDS011;18089;47.428;15.006;2022-09-03T02:53:02;11.20;;;10.30;;
31464;SDS011;18089;47.428;15.006;2022-09-03T02:55:34;11.85;;;10.85;;
31464;SDS011;18089;47.428;15.006;2022-09-03T02:58:06;11.98;;;10.98;;
31464;SDS011;18089;47.428;15.006;2022-09-03T03:00:38;14.93;;;11.57;;
31464;SDS011;18089;47.428;15.006;2022-09-03T03:03:12;11.75;;;10.75;;
31464;SDS011;18089;47.428;15.006;2022-09-03T03:05:45;12.15;;;10.70;;
31464;SDS011;18089;47.428;15.006;2022-09-03T03:08:19;11.70;;;10.63;;
31464;SDS011;18089;47.428;15.006;2022-09-03T03:10:53;11.50;;;10.60;;
31464;SDS011;18089;47.428;15.006;2022-09-03T03:13:28;12.00;;;11.10;;
31464;SDS011;18089;47.428;15.006;2022-09-03T03:16:02;12.00;;;11.10;;
31464;SDS011;18089;47.428;15.006;2022-09-03T03:18:36;12.75;;;11.20;;
31464;SDS011;18089;47.428;15.006;2022-09-03T03:21:09;12.13;;;10.93;;
31464;SDS011;18089;47.428;15.006;2022-09-03T03:23:42;11.85;;;10.85;;
31464;SDS011;18089;47.428;15.006;2022-09-03T03:26:15;12.38;;;11.38;;
31464;SDS011;18089;47.428;15.006;2022-09-03T03:28:49;11.90;;;10.90;;
31464;SDS011;18089;47.428;15.006;2022-09-03T03:31:27;12.02;;;10.85;;
31464;SDS011;18089;47.428;15.006;2022-09-03T03:34:01;12.48;;;11.32;;
31464;SDS011;18089;47.428;15.006;2022-09-03T03:36:33;12.60;;;11.50;;
31464;SDS011;18089;47.428;15.006;2022-09-03T03:39:06;12.15;;;11.20;;
31464;SDS011;18089;47.428;15.006;2022-09-03T03:41:38;12.55;;;11.45;;
31464;SDS011;18089;47.428;15.006;2022-09-03T03:44:10;12.32;;;11.40;;
31464;SDS011;18089;47.428;15.006;2022-09-03T03:46:42;12.38;;;11.38;;
31464;SDS011;18089;47.428;15.006;2022-09-03T03:49:16;13.40;;;12.30;;
31464;SDS011;18089;47.428;15.006;2022-09-03T03:51:48;13.38;;;12.18;;
31464;SDS011;18089;47.428;15.006;2022-09-03T03:54:20;13.77;;;12.48;;
31464;SDS011;18089;47.428;15.006;2022-09-03T03:56:52;13.15;;;12.15;;
31464;SDS011;18089;47.428;15.006;2022-09-03T03:59:24;12.93;;;11.82;;
31464;SDS011;18089;47.428;15.006;2022-09-03T04:01:56;12.70;;;11.65;;
31464;SDS011;18089;47.428;15.006;2022-09-03T04:04:30;13.05;;;11.95;;
31464;SDS011;18089;47.428;15.006;2022-09-03T04:07:02;13.20;;;11.98;;
31464;SDS011;18089;47.428;15.006;2022-09-03T04:09:34;12.57;;;11.68;;
31464;SDS011;18089;47.428;15.006;2022-09-03T04:12:06;13.27;;;12.18;;
31464;SDS011;18089;47.428;15.006;2022-09-03T04:14:39;13.45;;;12.38;;
31464;SDS011;18089;47.428;15.006;2022-09-03T04:17:11;12.88;;;11.75;;
31464;SDS011;18089;47.428;15.006;2022-09-03T04:19:45;13.07;;;12.05;;
31464;SDS011;18089;47.428;15.006;2022-09-03T04:22:17;13.00;;;11.73;;
31464;SDS011;18089;47.428;15.006;2022-09-03T04:24:49;13.57;;;12.18;;
31464;SDS011;18089;47.428;15.006;2022-09-03T04:27:21;13.02;;;11.70;;
31464;SDS011;18089;47.428;15.006;2022-09-03T04:29:53;12.68;;;11.68;;
31464;SDS011;18089;47.428;15.006;2022-09-03T04:32:26;13.07;;;12.07;;
31464;SDS011;18089;47.428;15.006;2022-09-03T04:35:17;13.45;;;12.23;;
31464;SDS011;18089;47.428;15.006;2022-09-03T04:37:50;12.80;;;11.70;;
31464;SDS011;18089;47.428;15.006;2022-09-03T04:40:24;12.55;;;11.38;;
31464;SDS011;18089;47.428;15.006;2022-09-03T04:42:56;12.80;;;11.75;;
31464;SDS011;18089;47.428;15.006;2022-09-03T04:45:29;12.43;;;11.43;;
31464;SDS011;18089;47.428;15.006;2022-09-03T04:48:01;12.85;;;11.85;;
31464;SDS011;18089;47.428;15.006;2022-09-03T04:50:35;12.95;;;11.63;;
31464;SDS011;18089;47.428;15.006;2022-09-03T04:53:07;13.05;;;11.88;;
31464;SDS011;18089;47.428;15.006;2022-09-03T04:55:39;12.93;;;11.73;;
31464;SDS011;18089;47.428;15.006;2022-09-03T04:58:11;12.82;;;11.52;;
31464;SDS011;18089;47.428;15.006;2022-09-03T05:00:43;13.70;;;12.07;;
31464;SDS011;18089;47.428;15.006;2022-09-03T05:03:16;13.23;;;12.13;;
31464;SDS011;18089;47.428;15.006;2022-09-03T05:05:53;13.15;;;12.07;;
31464;SDS011;18089;47.428;15.006;2022-09-03T05:08:25;12.73;;;11.63;;
31464;SDS011;18089;47.428;15.006;2022-09-03T05:10:58;12.20;;;11.20;;
31464;SDS011;18089;47.428;15.006;2022-09-03T05:13:30;13.18;;;12.18;;
31464;SDS011;18089;47.428;15.006;2022-09-03T05:16:04;12.52;;;11.52;;
31464;SDS011;18089;47.428;15.006;2022-09-03T05:18:37;13.45;;;12.02;;
31464;SDS011;18089;47.428;15.006;2022-09-03T05:21:13;13.73;;;12.32;;
31464;SDS011;18089;47.428;15.006;2022-09-03T05:23:46;12.90;;;11.80;;
31464;SDS011;18089;47.428;15.006;2022-09-03T05:26:20;13.25;;;12.15;;
31464;SDS011;18089;47.428;15.006;2022-09-03T05:28:53;13.20;;;12.10;;
31464;SDS011;18089;47.428;15.006;2022-09-03T05:31:27;15.60;;;14.20;;
31464;SDS011;18089;47.428;15.006;2022-09-03T05:34:01;15.85;;;14.45;;
31464;SDS011;18089;47.428;15.006;2022-09-03T05:36:36;14.75;;;13.32;;
31464;SDS011;18089;47.428;15.006;2022-09-03T05:39:08;14.70;;;13.30;;
31464;SDS011;18089;47.428;15.006;2022-09-03T05:41:40;16.60;;;14.95;;
31464;SDS011;18089;47.428;15.006;2022-09-03T05:44:12;15.43;;;14.02;;
31464;SDS011;18089;47.428;15.006;2022-09-03T05:46:44;18.67;;;13.77;;
31464;SDS011;18089;47.428;15.006;2022-09-03T05:49:16;19.95;;;15.07;;
31464;SDS011;18089;47.428;15.006;2022-09-03T05:51:50;15.30;;;13.70;;
31464;SDS011;18089;47.428;15.006;2022-09-03T05:54:22;18.05;;;13.13;;
31464;SDS011;18089;47.428;15.006;2022-09-03T05:56:54;17.27;;;13.15;;
31464;SDS011;18089;47.428;15.006;2022-09-03T05:59:26;15.80;;;13.43;;
31464;SDS011;18089;47.428;15.006;2022-09-03T06:01:58;15.45;;;13.85;;
31464;SDS011;18089;47.428;15.006;2022-09-03T06:04:30;14.52;;;13.10;;
31464;SDS011;18089;47.428;15.006;2022-09-03T06:07:04;13.57;;;11.85;;
31464;SDS011;18089;47.428;15.006;2022-09-03T06:09:36;13.55;;;12.25;;
31464;SDS011;18089;47.428;15.006;2022-09-03T06:12:08;15.38;;;13.23;;
31464;SDS011;18089;47.428;15.006;2022-09-03T06:14:40;15.43;;;12.80;;
31464;SDS011;18089;47.428;15.006;2022-09-03T06:17:12;12.55;;;11.45;;
31464;SDS011;18089;47.428;15.006;2022-09-03T06:19:44;13.30;;;11.55;;
31464;SDS011;18089;47.428;15.006;2022-09-03T06:22:18;13.13;;;11.85;;
31464;SDS011;18089;47.428;15.006;2022-09-03T06:24:50;12.93;;;11.63;;
31464;SDS011;18089;47.428;15.006;2022-09-03T06:27:22;12.85;;;11.65;;
31464;SDS011;18089;47.428;15.006;2022-09-03T06:29:54;12.02;;;10.77;;
31464;SDS011;18089;47.428;15.006;2022-09-03T06:32:28;12.32;;;11.07;;
31464;SDS011;18089;47.428;15.006;2022-09-03T06:35:00;12.18;;;10.98;;
31464;SDS011;18089;47.428;15.006;2022-09-03T06:37:33;13.25;;;11.65;;
31464;SDS011;18089;47.428;15.006;2022-09-03T06:40:10;12.65;;;11.20;;
31464;SDS011;18089;47.428;15.006;2022-09-03T06:42:42;16.38;;;12.98;;
31464;SDS011;18089;47.428;15.006;2022-09-03T06:45:14;12.32;;;10.90;;
31464;SDS011;18089;47.428;15.006;2022-09-03T06:47:47;12.20;;;11.02;;
31464;SDS011;18089;47.428;15.006;2022-09-03T06:50:19;12.43;;;11.13;;
31464;SDS011;18089;47.428;15.006;2022-09-03T06:52:52;15.38;;;11.40;;
31464;SDS011;18089;47.428;15.006;2022-09-03T06:55:25;11.52;;;10.52;;
31464;SDS011;18089;47.428;15.006;2022-09-03T06:57:57;11.13;;;10.02;;
31464;SDS011;18089;47.428;15.006;2022-09-03T07:00:29;11.55;;;10.32;;
31464;SDS011;18089;47.428;15.006;2022-09-03T07:03:01;9.70;;;8.95;;
31464;SDS011;18089;47.428;15.006;2022-09-03T07:05:33;11.90;;;9.70;;
31464;SDS011;18089;47.428;15.006;2022-09-03T07:08:06;10.63;;;9.55;;
31464;SDS011;18089;47.428;15.006;2022-09-03T07:10:39;10.05;;;9.25;;
31464;SDS011;18089;47.428;15.006;2022-09-03T07:13:12;10.68;;;9.77;;
31464;SDS011;18089;47.428;15.006;2022-09-03T07:15:44;10.70;;;9.80;;
31464;SDS011;18089;47.428;15.006;2022-09-03T07:18:17;10.35;;;9.35;;
31464;SDS011;18089;47.428;15.006;2022-09-03T07:20:49;10.02;;;9.07;;
31464;SDS011;18089;47.428;15.006;2022-09-03T07:23:23;13.38;;;10.18;;
31464;SDS011;18089;47.428;15.006;2022-09-03T07:25:55;10.85;;;9.68;;
31464;SDS011;18089;47.428;15.006;2022-09-03T07:28:28;9.95;;;9.05;;
31464;SDS011;18089;47.428;15.006;2022-09-03T07:31:02;10.50;;;9.65;;
31464;SDS011;18089;47.428;15.006;2022-09-03T07:33:36;10.48;;;9.40;;
31464;SDS011;18089;47.428;15.006;2022-09-03T07:36:09;9.88;;;8.98;;
31464;SDS011;18089;47.428;15.006;2022-09-03T07:38:44;10.40;;;9.40;;
31464;SDS011;18089;47.428;15.006;2022-09-03T07:41:16;12.18;;;9.55;;
31464;SDS011;18089;47.428;15.006;2022-09-03T07:43:48;9.25;;;8.45;;
31464;SDS011;18089;47.428;15.006;2022-09-03T07:46:21;10.75;;;9.65;;
31464;SDS011;18089;47.428;15.006;2022-09-03T07:48:55;10.40;;;9.50;;
31464;SDS011;18089;47.428;15.006;2022-09-03T07:51:28;10.65;;;9.10;;
31464;SDS011;18089;47.428;15.006;2022-09-03T07:54:04;9.75;;;8.75;;
31464;SDS011;18089;47.428;15.006;2022-09-03T07:56:37;9.10;;;8.23;;
31464;SDS011;18089;47.428;15.006;2022-09-03T07:59:10;9.20;;;8.13;;
31464;SDS011;18089;47.428;15.006;2022-09-03T08:01:42;8.70;;;7.95;;
31464;SDS011;18089;47.428;15.006;2022-09-03T08:04:14;9.10;;;8.30;;
31464;SDS011;18089;47.428;15.006;2022-09-03T08:06:46;8.75;;;8.00;;
31464;SDS011;18089;47.428;15.006;2022-09-03T08:09:20;8.82;;;8.05;;
31464;SDS011;18089;47.428;15.006;2022-09-03T08:11:52;9.98;;;7.88;;
31464;SDS011;18089;47.428;15.006;2022-09-03T08:14:24;8.43;;;7.60;;
31464;SDS011;18089;47.428;15.006;2022-09-03T08:16:56;7.25;;;6.63;;
31464;SDS011;18089;47.428;15.006;2022-09-03T08:19:29;7.75;;;7.13;;
31464;SDS011;18089;47.428;15.006;2022-09-03T08:22:01;7.35;;;6.75;;
31464;SDS011;18089;47.428;15.006;2022-09-03T08:24:34;7.43;;;6.68;;
31464;SDS011;18089;47.428;15.006;2022-09-03T08:27:06;8.98;;;7.22;;
31464;SDS011;18089;47.428;15.006;2022-09-03T08:29:38;7.38;;;6.68;;
31464;SDS011;18089;47.428;15.006;2022-09-03T08:32:11;7.50;;;6.82;;
31464;SDS011;18089;47.428;15.006;2022-09-03T08:34:43;7.63;;;6.82;;
31464;SDS011;18089;47.428;15.006;2022-09-03T08:37:15;7.18;;;6.57;;
31464;SDS011;18089;47.428;15.006;2022-09-03T08:39:49;8.13;;;7.18;;
31464;SDS011;18089;47.428;15.006;2022-09-03T08:42:27;7.03;;;6.43;;
31464;SDS011;18089;47.428;15.006;2022-09-03T08:45:04;7.22;;;6.63;;
31464;SDS011;18089;47.428;15.006;2022-09-03T08:47:38;6.93;;;6.32;;
31464;SDS011;18089;47.428;15.006;2022-09-03T08:50:15;7.13;;;6.63;;
31464;SDS011;18089;47.428;15.006;2022-09-03T08:52:53;7.10;;;6.47;;
31464;SDS011;18089;47.428;15.006;2022-09-03T08:55:33;6.50;;;6.00;;
31464;SDS011;18089;47.428;15.006;2022-09-03T08:58:12;6.55;;;6.05;;
31464;SDS011;18089;47.428;15.006;2022-09-03T09:00:46;6.80;;;6.20;;
31464;SDS011;18089;47.428;15.006;2022-09-03T09:03:33;6.90;;;6.00;;
31464;SDS011;18089;47.428;15.006;2022-09-03T09:06:22;6.35;;;5.43;;
31464;SDS011;18089;47.428;15.006;2022-09-03T09:09:02;6.32;;;5.72;;
31464;SDS011;18089;47.428;15.006;2022-09-03T09:11:43;5.82;;;5.40;;
31464;SDS011;18089;47.428;15.006;2022-09-03T09:14:20;5.65;;;5.20;;
31464;SDS011;18089;47.428;15.006;2022-09-03T09:16:56;6.00;;;5.40;;
31464;SDS011;18089;47.428;15.006;2022-09-03T09:19:38;5.90;;;5.20;;
31464;SDS011;18089;47.428;15.006;2022-09-03T09:22:17;7.63;;;5.15;;
31464;SDS011;18089;47.428;15.006;2022-09-03T09:24:55;6.20;;;5.63;;
31464;SDS011;18089;47.428;15.006;2022-09-03T09:27:31;5.85;;;5.45;;
31464;SDS011;18089;47.428;15.006;2022-09-03T09:30:03;5.75;;;5.07;;
31464;SDS011;18089;47.428;15.006;2022-09-03T09:32:36;6.03;;;5.43;;
31464;SDS011;18089;47.428;15.006;2022-09-03T09:35:08;5.78;;;5.25;;
31464;SDS011;18089;47.428;15.006;2022-09-03T09:37:47;6.00;;;5.40;;
31464;SDS011;18089;47.428;15.006;2022-09-03T09:40:29;4.88;;;4.45;;
31464;SDS011;18089;47.428;15.006;2022-09-03T09:43:08;8.15;;;4.95;;
31464;SDS011;18089;47.428;15.006;2022-09-03T09:45:42;6.07;;;5.10;;
31464;SDS011;18089;47.428;15.006;2022-09-03T09:48:16;5.40;;;4.90;;
31464;SDS011;18089;47.428;15.006;2022-09-03T09:51:01;4.97;;;4.57;;
31464;SDS011;18089;47.428;15.006;2022-09-03T09:53:35;4.82;;;4.30;;
31464;SDS011;18089;47.428;15.006;2022-09-03T09:56:07;4.90;;;4.50;;
31464;SDS011;18089;47.428;15.006;2022-09-03T09:58:40;6.75;;;4.32;;
31464;SDS011;18089;47.428;15.006;2022-09-03T10:01:14;6.68;;;4.75;;
31464;SDS011;18089;47.428;15.006;2022-09-03T10:03:50;4.30;;;4.00;;
31464;SDS011;18089;47.428;15.006;2022-09-03T10:06:24;4.47;;;4.07;;
31464;SDS011;18089;47.428;15.006;2022-09-03T10:09:15;4.60;;;4.20;;
31464;SDS011;18089;47.428;15.006;2022-09-03T10:11:49;4.78;;;4.32;;
31464;SDS011;18089;47.428;15.006;2022-09-03T10:14:28;4.38;;;3.92;;
31464;SDS011;18089;47.428;15.006;2022-09-03T10:17:06;4.28;;;3.97;;
31464;SDS011;18089;47.428;15.006;2022-09-03T10:19:42;4.05;;;3.75;;
31464;SDS011;18089;47.428;15.006;2022-09-03T10:22:39;4.60;;;4.20;;
31464;SDS011;18089;47.428;15.006;2022-09-03T10:25:15;4.53;;;4.13;;
31464;SDS011;18089;47.428;15.006;2022-09-03T10:27:49;5.35;;;4.85;;
31464;SDS011;18089;47.428;15.006;2022-09-03T10:30:24;4.65;;;4.20;;
31464;SDS011;18089;47.428;15.006;2022-09-03T10:33:00;4.25;;;3.85;;
31464;SDS011;18089;47.428;15.006;2022-09-03T10:35:40;4.30;;;4.00;;
31464;SDS011;18089;47.428;15.006;2022-09-03T10:38:16;3.85;;;3.53;;
31464;SDS011;18089;47.428;15.006;2022-09-03T10:40:53;4.05;;;3.65;;
31464;SDS011;18089;47.428;15.006;2022-09-03T10:43:37;4.78;;;3.90;;
31464;SDS011;18089;47.428;15.006;2022-09-03T10:46:28;4.63;;;3.40;;
31464;SDS011;18089;47.428;15.006;2022-09-03T10:49:09;3.40;;;3.10;;
31464;SDS011;18089;47.428;15.006;2022-09-03T10:51:54;3.03;;;2.83;;
31464;SDS011;18089;47.428;15.006;2022-09-03T10:54:44;3.35;;;3.10;;
31464;SDS011;18089;47.428;15.006;2022-09-03T10:57:26;3.95;;;3.00;;
31464;SDS011;18089;47.428;15.006;2022-09-03T11:00:04;3.92;;;3.30;;
31464;SDS011;18089;47.428;15.006;2022-09-03T11:05:40;3.55;;;3.25;;
31464;SDS011;18089;47.428;15.006;2022-09-03T11:08:15;3.88;;;3.03;;
31464;SDS011;18089;47.428;15.006;2022-09-03T11:10:51;4.68;;;3.17;;
31464;SDS011;18089;47.428;15.006;2022-09-03T11:13:25;3.00;;;2.75;;
31464;SDS011;18089;47.428;15.006;2022-09-03T11:16:00;5.53;;;3.00;;
31464;SDS011;18089;47.428;15.006;2022-09-03T11:18:39;3.17;;;2.95;;
31464;SDS011;18089;47.428;15.006;2022-09-03T11:21:14;4.53;;;3.00;;
31464;SDS011;18089;47.428;15.006;2022-09-03T11:23:49;3.13;;;2.67;;
31464;SDS011;18089;47.428;15.006;2022-09-03T11:26:25;4.38;;;2.40;;
31464;SDS011;18089;47.428;15.006;2022-09-03T11:28:58;4.93;;;2.45;;
31464;SDS011;18089;47.428;15.006;2022-09-03T11:31:37;3.25;;;2.30;;
31464;SDS011;18089;47.428;15.006;2022-09-03T11:34:26;3.63;;;2.47;;
31464;SDS011;18089;47.428;15.006;2022-09-03T11:37:04;4.78;;;2.78;;
31464;SDS011;18089;47.428;15.006;2022-09-03T11:39:38;2.78;;;2.47;;
31464;SDS011;18089;47.428;15.006;2022-09-03T11:42:11;3.70;;;2.75;;
31464;SDS011;18089;47.428;15.006;2022-09-03T11:45:14;2.90;;;2.70;;
31464;SDS011;18089;47.428;15.006;2022-09-03T11:47:52;6.25;;;3.15;;
31464;SDS011;18089;47.428;15.006;2022-09-03T11:50:26;2.60;;;2.40;;
31464;SDS011;18089;47.428;15.006;2022-09-03T11:53:07;2.42;;;2.15;;
31464;SDS011;18089;47.428;15.006;2022-09-03T11:55:49;2.78;;;2.40;;
31464;SDS011;18089;47.428;15.006;2022-09-03T11:58:25;3.17;;;2.53;;
31464;SDS011;18089;47.428;15.006;2022-09-03T12:01:00;2.90;;;2.63;;
31464;SDS011;18089;47.428;15.006;2022-09-03T12:03:36;2.70;;;2.50;;
31464;SDS011;18089;47.428;15.006;2022-09-03T12:06:20;4.40;;;2.60;;
31464;SDS011;18089;47.428;15.006;2022-09-03T12:12:41;3.88;;;2.50;;
31464;SDS011;18089;47.428;15.006;2022-09-03T12:15:18;4.15;;;2.17;;
31464;SDS011;18089;47.428;15.006;2022-09-03T12:17:58;2.50;;;2.30;;
31464;SDS011;18089;47.428;15.006;2022-09-03T12:21:01;3.53;;;2.20;;
31464;SDS011;18089;47.428;15.006;2022-09-03T12:23:39;2.75;;;2.20;;
31464;SDS011;18089;47.428;15.006;2022-09-03T12:26:13;2.75;;;2.10;;
31464;SDS011;18089;47.428;15.006;2022-09-03T12:28:46;3.45;;;2.50;;
31464;SDS011;18089;47.428;15.006;2022-09-03T12:31:20;9.27;;;2.28;;
31464;SDS011;18089;47.428;15.006;2022-09-03T12:33:55;4.28;;;2.63;;
31464;SDS011;18089;47.428;15.006;2022-09-03T12:36:35;3.65;;;2.67;;
31464;SDS011;18089;47.428;15.006;2022-09-03T12:39:09;2.90;;;2.70;;
31464;SDS011;18089;47.428;15.006;2022-09-03T12:41:54;3.13;;;2.88;;
31464;SDS011;18089;47.428;15.006;2022-09-03T12:44:37;3.05;;;2.75;;
31464;SDS011;18089;47.428;15.006;2022-09-03T12:47:11;3.40;;;3.00;;
31464;SDS011;18089;47.428;15.006;2022-09-03T12:49:46;3.78;;;3.00;;
31464;SDS011;18089;47.428;15.006;2022-09-03T12:52:24;4.47;;;2.85;;
31464;SDS011;18089;47.428;15.006;2022-09-03T12:55:00;3.45;;;2.90;;
31464;SDS011;18089;47.428;15.006;2022-09-03T12:57:35;3.63;;;2.90;;
31464;SDS011;18089;47.428;15.006;2022-09-03T13:00:12;4.40;;;2.70;;
31464;SDS011;18089;47.428;15.006;2022-09-03T13:02:46;3.15;;;2.85;;
31464;SDS011;18089;47.428;15.006;2022-09-03T13:05:24;2.63;;;2.42;;
31464;SDS011;18089;47.428;15.006;2022-09-03T13:08:00;3.10;;;2.80;;
31464;SDS011;18089;47.428;15.006;2022-09-03T13:10:36;3.28;;;2.60;;
31464;SDS011;18089;47.428;15.006;2022-09-03T13:13:16;4.75;;;2.55;;
31464;SDS011;18089;47.428;15.006;2022-09-03T13:16:02;2.85;;;2.60;;
31464;SDS011;18089;47.428;15.006;2022-09-03T13:18:42;2.63;;;2.42;;
31464;SDS011;18089;47.428;15.006;2022-09-03T13:21:17;3.65;;;2.35;;
31464;SDS011;18089;47.428;15.006;2022-09-03T13:24:07;4.45;;;3.13;;
31464;SDS011;18089;47.428;15.006;2022-09-03T13:26:50;4.32;;;2.72;;
31464;SDS011;18089;47.428;15.006;2022-09-03T13:29:44;3.75;;;2.65;;
31464;SDS011;18089;47.428;15.006;2022-09-03T13:32:29;4.18;;;2.95;;
31464;SDS011;18089;47.428;15.006;2022-09-03T13:35:08;3.10;;;2.90;;
31464;SDS011;18089;47.428;15.006;2022-09-03T13:37:44;4.45;;;2.90;;
31464;SDS011;18089;47.428;15.006;2022-09-03T13:40:20;7.53;;;3.08;;
31464;SDS011;18089;47.428;15.006;2022-09-03T13:42:57;3.10;;;2.90;;
31464;SDS011;18089;47.428;15.006;2022-09-03T13:45:34;3.25;;;2.95;;
31464;SDS011;18089;47.428;15.006;2022-09-03T13:48:09;2.95;;;2.75;;
31464;SDS011;18089;47.428;15.006;2022-09-03T13:51:03;3.17;;;2.80;;
31464;SDS011;18089;47.428;15.006;2022-09-03T13:53:41;3.38;;;2.92;;
31464;SDS011;18089;47.428;15.006;2022-09-03T13:56:21;3.00;;;2.80;;
31464;SDS011;18089;47.428;15.006;2022-09-03T13:59:00;2.95;;;2.58;;
31464;SDS011;18089;47.428;15.006;2022-09-03T14:01:45;3.75;;;2.75;;
31464;SDS011;18089;47.428;15.006;2022-09-03T14:04:31;3.42;;;3.13;;
31464;SDS011;18089;47.428;15.006;2022-09-03T14:07:14;3.15;;;2.92;;
31464;SDS011;18089;47.428;15.006;2022-09-03T14:09:55;6.07;;;2.72;;
31464;SDS011;18089;47.428;15.006;2022-09-03T14:12:33;3.58;;;3.20;;
31464;SDS011;18089;47.428;15.006;2022-09-03T14:15:16;3.10;;;2.90;;
31464;SDS011;18089;47.428;15.006;2022-09-03T14:17:51;3.13;;;2.85;;
31464;SDS011;18089;47.428;15.006;2022-09-03T14:20:28;3.65;;;3.20;;
31464;SDS011;18089;47.428;15.006;2022-09-03T14:23:02;5.20;;;3.35;;
31464;SDS011;18089;47.428;15.006;2022-09-03T14:25:35;4.47;;;3.42;;
31464;SDS011;18089;47.428;15.006;2022-09-03T14:28:12;4.47;;;3.13;;
31464;SDS011;18089;47.428;15.006;2022-09-03T14:30:48;4.82;;;3.50;;
31464;SDS011;18089;47.428;15.006;2022-09-03T14:33:25;4.95;;;3.65;;
31464;SDS011;18089;47.428;15.006;2022-09-03T14:36:04;3.90;;;3.50;;
31464;SDS011;18089;47.428;15.006;2022-09-03T14:38:48;3.90;;;3.60;;
31464;SDS011;18089;47.428;15.006;2022-09-03T14:41:42;3.83;;;3.53;;
31464;SDS011;18089;47.428;15.006;2022-09-03T14:44:47;4.18;;;3.65;;
31464;SDS011;18089;47.428;15.006;2022-09-03T14:47:35;3.95;;;3.65;;
31464;SDS011;18089;47.428;15.006;2022-09-03T14:50:26;3.70;;;3.40;;
31464;SDS011;18089;47.428;15.006;2022-09-03T14:53:08;3.63;;;3.33;;
31464;SDS011;18089;47.428;15.006;2022-09-03T14:55:53;3.63;;;3.33;;
31464;SDS011;18089;47.428;15.006;2022-09-03T14:58:55;3.30;;;3.10;;
31464;SDS011;18089;47.428;15.006;2022-09-03T15:01:33;3.53;;;3.22;;
31464;SDS011;18089;47.428;15.006;2022-09-03T15:04:16;3.70;;;3.40;;
31464;SDS011;18089;47.428;15.006;2022-09-03T15:07:07;3.97;;;3.28;;
31464;SDS011;18089;47.428;15.006;2022-09-03T15:10:10;3.83;;;3.30;;
31464;SDS011;18089;47.428;15.006;2022-09-03T15:12:47;3.67;;;3.30;;
31464;SDS011;18089;47.428;15.006;2022-09-03T15:15:22;3.80;;;3.50;;
31464;SDS011;18089;47.428;15.006;2022-09-03T15:18:01;4.10;;;3.70;;
31464;SDS011;18089;47.428;15.006;2022-09-03T15:20:46;6.00;;;4.10;;
31464;SDS011;18089;47.428;15.006;2022-09-03T15:23:24;4.10;;;3.80;;
31464;SDS011;18089;47.428;15.006;2022-09-03T15:29:07;6.45;;;4.13;;